Main page
METAR-TAF:

METAR-TAF

Airports :

Aurillac, France

Aurillac – Tronquières Airport

latitude: 44-53N, longitude: 002-25E, elevation: 639 m

Current weather observation

The report was made 11 minutes ago, at 04:30 UTC
Wind 6 kt from the East
Temperature 3°C
Humidity 87%
Pressure 1011 hPa
Visibility 10 km or more
no clouds below 1500 m and no cumulonimbus

METAR: LFLW 270430Z AUTO 08006KT CAVOK 03/01 Q1011

Time: 06:41 (04:41 UTC)

Forecast

The report was made 14 hours and 41 minutes ago, at 14:00 UTC
Forecast valid from 26 at 15 UTC to 26 at 24 UTC
Wind 10 kt from the Northwest
Visibility 10 km or more
no clouds below 1500 m and no cumulonimbus

TAF: LFLW 261400Z 2615/2624 32010KT CAVOK

Weather observations and forecasts of more than 4000 airports (METAR and TAF reports).

The available stations are represented by yellow and red dots on the map.

Hover mouse over dot to see the name of the station.

Then click to see weather observations and forecasts.

To change the map : click on the green buttons with a black cross to zoom in, on the green button with a dash to zoom out, or on the green arrows for adjacent maps.


METAR-TAF: